Time;durP1;ratioP1;P1;durP2;ratioP2;P2;SDS_P1;SDS_P2;PMS_P1;PMS_P2;Temp;Humidity;BMP_temperature;BMP_pressure;BME280_temperature;BME280_humidity;BME280_pressure;Samples;Min_cycle;Max_cycle;Signal;HPM_P1;HPM_P2
2024/03/29 00:00:25;;;;;;;29.27;27.67;;;;;;;;;;5116595;27;20046;-59
2024/03/29 00:02:50;;;;;;;29.02;27.52;;;;;;;;;;5112929;27;20442;-59
2024/03/29 00:05:16;;;;;;;26.83;25.42;;;;;;;;;;5098115;27;20039;-59
2024/03/29 00:07:41;;;;;;;30.42;28.52;;;;;;;;;;5111273;27;20787;-60
2024/03/29 00:10:06;;;;;;;29.00;27.50;;;;;;;;;;5113144;27;20027;-60
2024/03/29 00:12:32;;;;;;;28.27;26.67;;;;;;;;;;5111917;27;20050;-60
2024/03/29 00:14:57;;;;;;;27.27;25.85;;;;;;;;;;5113762;27;20114;-60
2024/03/29 00:17:22;;;;;;;30.50;28.92;;;;;;;;;;5115638;27;20023;-60
2024/03/29 00:19:48;;;;;;;28.08;26.58;;;;;;;;;;5112659;27;20054;-60
2024/03/29 00:22:13;;;;;;;28.45;26.95;;;;;;;;;;5110672;27;20601;-60
2024/03/29 00:24:38;;;;;;;25.30;23.92;;;;;;;;;;5110268;27;20453;-60
2024/03/29 00:27:04;;;;;;;30.98;29.08;;;;;;;;;;5112284;27;20498;-60
2024/03/29 00:29:29;;;;;;;28.65;27.15;;;;;;;;;;5112956;27;20095;-60
2024/03/29 00:31:55;;;;;;;28.90;27.40;;;;;;;;;;5113789;27;20035;-60
2024/03/29 00:34:20;;;;;;;25.60;24.23;;;;;;;;;;5112717;27;20038;-60
2024/03/29 00:36:46;;;;;;;25.58;24.23;;;;;;;;;;5112221;27;20035;-60
2024/03/29 00:39:11;;;;;;;26.75;25.25;;;;;;;;;;5086185;27;20027;-60
2024/03/29 00:41:37;;;;;;;28.88;27.38;;;;;;;;;;5113195;27;20035;-60
2024/03/29 00:44:02;;;;;;;24.70;23.40;;;;;;;;;;5113015;27;20067;-59
2024/03/29 00:46:28;;;;;;;26.15;24.77;;;;;;;;;;5108721;27;20042;-60
2024/03/29 00:48:54;;;;;;;27.83;26.23;;;;;;;;;;5112727;27;20032;-60
2024/03/29 00:51:19;;;;;;;24.38;23.08;;;;;;;;;;5094742;28;20039;-60
2024/03/29 00:53:44;;;;;;;26.40;24.80;;;;;;;;;;5111142;27;20032;-59
2024/03/29 00:56:10;;;;;;;27.70;26.25;;;;;;;;;;5113185;27;20027;-60
2024/03/29 00:58:35;;;;;;;24.92;23.60;;;;;;;;;;5112805;27;20038;-60
2024/03/29 01:01:00;;;;;;;27.30;25.83;;;;;;;;;;5113114;27;20054;-60
2024/03/29 01:03:28;;;;;;;26.58;25.05;;;;;;;;;;5110139;27;20175;-60
2024/03/29 01:05:54;;;;;;;27.35;25.92;;;;;;;;;;5112568;27;20027;-60
2024/03/29 01:08:19;;;;;;;25.10;23.60;;;;;;;;;;5112124;27;20087;-60
2024/03/29 01:10:45;;;;;;;25.42;24.10;;;;;;;;;;5113560;27;20062;-60
2024/03/29 01:13:10;;;;;;;26.50;25.05;;;;;;;;;;5094665;27;20422;-59
2024/03/29 01:15:35;;;;;;;25.52;24.13;;;;;;;;;;5114939;27;20043;-60
2024/03/29 01:18:01;;;;;;;24.30;23.00;;;;;;;;;;5112258;27;20027;-60
2024/03/29 01:20:26;;;;;;;24.75;23.45;;;;;;;;;;5114238;27;20054;-60
2024/03/29 01:22:51;;;;;;;22.98;21.67;;;;;;;;;;5113385;27;20042;-60
2024/03/29 01:25:18;;;;;;;24.95;23.65;;;;;;;;;;5115481;27;20091;-60
2024/03/29 01:27:43;;;;;;;23.85;22.58;;;;;;;;;;5094839;28;20031;-60
2024/03/29 01:30:09;;;;;;;24.45;23.15;;;;;;;;;;5114495;28;20035;-60
2024/03/29 01:32:34;;;;;;;24.75;22.73;;;;;;;;;;5110722;28;20594;-60
2024/03/29 01:35:00;;;;;;;24.90;23.50;;;;;;;;;;5095330;28;20096;-60
2024/03/29 01:37:25;;;;;;;25.02;23.73;;;;;;;;;;5109432;28;20028;-60
2024/03/29 01:39:51;;;;;;;23.05;21.75;;;;;;;;;;5112968;28;20035;-61
2024/03/29 01:42:16;;;;;;;23.52;22.25;;;;;;;;;;5112696;28;20088;-60
2024/03/29 01:44:42;;;;;;;24.17;22.88;;;;;;;;;;5093906;28;20354;-60
2024/03/29 01:47:08;;;;;;;23.40;22.10;;;;;;;;;;5112488;27;20143;-60
2024/03/29 01:49:33;;;;;;;24.42;23.13;;;;;;;;;;5116649;27;20043;-60
2024/03/29 01:51:59;;;;;;;23.45;22.15;;;;;;;;;;5116434;27;20046;-60
2024/03/29 01:54:24;;;;;;;22.60;21.40;;;;;;;;;;5115357;27;20502;-60
2024/03/29 01:56:50;;;;;;;23.83;22.40;;;;;;;;;;5114472;27;20028;-60
2024/03/29 01:59:17;;;;;;;25.83;24.23;;;;;;;;;;5115295;27;20460;-60
2024/03/29 02:01:42;;;;;;;23.75;22.45;;;;;;;;;;5115479;27;20027;-60
2024/03/29 02:04:09;;;;;;;22.80;21.50;;;;;;;;;;5114928;27;20077;-60
2024/03/29 02:06:35;;;;;;;23.30;22.10;;;;;;;;;;5115624;27;20051;-60
2024/03/29 02:09:00;;;;;;;22.30;21.10;;;;;;;;;;5115514;27;20440;-60
2024/03/29 02:11:25;;;;;;;23.70;22.40;;;;;;;;;;5119291;27;20015;-59
2024/03/29 02:13:52;;;;;;;24.42;23.02;;;;;;;;;;5115663;27;20053;-60
2024/03/29 02:16:17;;;;;;;24.60;23.15;;;;;;;;;;5116634;27;20038;-60
2024/03/29 02:18:42;;;;;;;23.15;21.95;;;;;;;;;;5116874;27;21077;-60
2024/03/29 02:21:08;;;;;;;25.75;24.00;;;;;;;;;;5114144;27;20034;-60
2024/03/29 02:23:36;;;;;;;23.25;22.02;;;;;;;;;;5115400;27;20095;-60
2024/03/29 02:26:03;;;;;;;23.45;22.15;;;;;;;;;;5114672;27;20053;-60
2024/03/29 02:28:28;;;;;;;23.90;22.60;;;;;;;;;;5116069;27;20035;-60
2024/03/29 02:30:54;;;;;;;26.48;25.05;;;;;;;;;;5114364;27;20051;-60
2024/03/29 02:33:21;;;;;;;25.05;23.65;;;;;;;;;;5114747;27;20042;-59
2024/03/29 02:35:46;;;;;;;22.98;21.70;;;;;;;;;;5115824;27;20703;-60
2024/03/29 02:38:11;;;;;;;24.42;23.10;;;;;;;;;;5111986;27;20047;-60
2024/03/29 02:40:37;;;;;;;23.85;22.55;;;;;;;;;;5097296;27;20036;-60
2024/03/29 02:43:02;;;;;;;24.33;23.02;;;;;;;;;;5115066;27;20110;-60
2024/03/29 02:45:27;;;;;;;24.23;22.92;;;;;;;;;;5098804;27;20031;-60
2024/03/29 02:47:53;;;;;;;23.95;22.58;;;;;;;;;;5116671;27;20538;-60
2024/03/29 02:50:18;;;;;;;24.08;22.80;;;;;;;;;;5099271;27;20043;-60
2024/03/29 02:52:43;;;;;;;23.95;22.65;;;;;;;;;;5116158;27;20038;-60
2024/03/29 02:55:12;;;;;;;25.17;23.83;;;;;;;;;;5112475;27;20122;-60
2024/03/29 02:57:37;;;;;;;24.13;22.83;;;;;;;;;;5114783;27;20042;-60
2024/03/29 03:00:09;;;;;;;24.13;22.83;;;;;;;;;;5116555;27;20031;-59
2024/03/29 03:02:38;;;;;;;26.48;25.05;;;;;;;;;;5115393;27;20469;-60
2024/03/29 03:05:04;;;;;;;25.45;24.05;;;;;;;;;;5112896;27;20035;-59
2024/03/29 03:10:56;;;;;;;25.65;24.25;;;;;;;;;;5113228;27;20457;-60
2024/03/29 03:13:02;;;;;;;22.88;21.67;;;;;;;;;;5101470;27;20073;-59
2024/03/29 03:15:27;;;;;;;30.67;29.02;;;;;;;;;;5114864;27;20027;-60
2024/03/29 03:17:52;;;;;;;31.13;29.13;;;;;;;;;;5117390;27;20043;-60
2024/03/29 03:20:19;;;;;;;30.35;28.77;;;;;;;;;;5115875;27;20649;-60
2024/03/29 03:22:44;;;;;;;23.52;22.27;;;;;;;;;;5113082;27;20020;-60
2024/03/29 03:25:10;;;;;;;32.90;30.98;;;;;;;;;;5095179;27;20580;-60
2024/03/29 03:27:35;;;;;;;24.52;23.23;;;;;;;;;;5116305;27;20031;-60
2024/03/29 03:30:00;;;;;;;26.83;25.42;;;;;;;;;;5114364;27;20123;-60
2024/03/29 03:32:26;;;;;;;31.40;29.77;;;;;;;;;;5080788;27;20023;-60
2024/03/29 03:34:51;;;;;;;33.63;31.90;;;;;;;;;;5115418;27;20046;-60
2024/03/29 03:37:16;;;;;;;28.70;27.20;;;;;;;;;;5115775;27;20092;-60
2024/03/29 03:39:42;;;;;;;36.13;34.22;;;;;;;;;;5097746;27;20035;-59
2024/03/29 03:42:07;;;;;;;37.17;35.25;;;;;;;;;;5116777;27;20035;-60
2024/03/29 03:44:32;;;;;;;42.65;40.47;;;;;;;;;;5115857;27;20100;-60
2024/03/29 03:46:57;;;;;;;33.72;31.95;;;;;;;;;;5112675;27;20418;-60
2024/03/29 03:49:23;;;;;;;36.92;35.03;;;;;;;;;;5115232;27;20129;-60
2024/03/29 03:51:48;;;;;;;47.72;45.33;;;;;;;;;;5113760;27;20542;-60
2024/03/29 03:54:14;;;;;;;41.80;39.65;;;;;;;;;;5094553;27;20031;-60
2024/03/29 03:56:39;;;;;;;39.30;37.25;;;;;;;;;;5114223;27;20042;-60
2024/03/29 03:59:04;;;;;;;48.85;46.30;;;;;;;;;;5097237;27;20371;-60
2024/03/29 04:01:29;;;;;;;42.30;40.15;;;;;;;;;;5114861;27;20031;-60
2024/03/29 04:03:55;;;;;;;49.92;47.40;;;;;;;;;;5096623;27;20088;-60
2024/03/29 04:06:20;;;;;;;44.83;42.53;;;;;;;;;;5111228;27;20039;-60
2024/03/29 04:08:46;;;;;;;54.80;51.78;;;;;;;;;;5095094;27;20134;-60
2024/03/29 04:11:11;;;;;;;52.10;49.47;;;;;;;;;;5114631;27;20036;-60
2024/03/29 04:13:38;;;;;;;56.10;53.30;;;;;;;;;;5113457;27;20041;-60
2024/03/29 04:16:05;;;;;;;51.78;49.17;;;;;;;;;;5114135;27;20127;-60
2024/03/29 04:18:31;;;;;;;56.95;54.10;;;;;;;;;;5112553;27;20110;-60
2024/03/29 04:20:58;;;;;;;61.22;58.15;;;;;;;;;;5116728;27;21199;-60
2024/03/29 04:23:23;;;;;;;61.95;58.85;;;;;;;;;;5114469;27;20031;-60
2024/03/29 04:25:56;;;;;;;61.08;57.95;;;;;;;;;;5114163;27;20104;-59
2024/03/29 04:28:21;;;;;;;58.95;56.00;;;;;;;;;;5114732;27;20515;-60
2024/03/29 04:30:57;;;;;;;65.07;61.85;;;;;;;;;;5111745;27;20032;-60
2024/03/29 04:33:23;;;;;;;56.28;53.40;;;;;;;;;;5114922;27;20182;-60
2024/03/29 04:35:53;;;;;;;55.80;53.00;;;;;;;;;;5112484;27;20028;-59
2024/03/29 04:38:19;;;;;;;60.88;57.78;;;;;;;;;;5114636;27;20376;-60
2024/03/29 04:40:44;;;;;;;52.92;50.25;;;;;;;;;;5096150;27;20035;-60
2024/03/29 04:43:09;;;;;;;49.10;46.58;;;;;;;;;;5113733;27;20033;-60
2024/03/29 04:45:35;;;;;;;58.85;55.88;;;;;;;;;;5111690;27;20066;-60
2024/03/29 04:48:00;;;;;;;60.03;57.03;;;;;;;;;;5112486;27;20126;-60
2024/03/29 04:50:25;;;;;;;59.10;56.15;;;;;;;;;;5095067;27;20044;-60
2024/03/29 04:52:50;;;;;;;60.25;57.22;;;;;;;;;;5094661;27;20028;-60
2024/03/29 04:55:16;;;;;;;62.60;59.47;;;;;;;;;;5115152;27;20038;-60
2024/03/29 04:57:41;;;;;;;63.92;60.72;;;;;;;;;;5113647;27;20032;-60
2024/03/29 05:00:08;;;;;;;57.08;54.20;;;;;;;;;;5112353;27;20368;-60
2024/03/29 05:02:33;;;;;;;61.15;58.05;;;;;;;;;;5116047;27;20096;-60
2024/03/29 05:04:58;;;;;;;58.95;55.97;;;;;;;;;;5111618;27;20484;-60
2024/03/29 05:07:24;;;;;;;61.72;58.60;;;;;;;;;;5113012;27;20074;-59
2024/03/29 05:09:49;;;;;;;59.67;56.63;;;;;;;;;;5111748;27;20039;-59
2024/03/29 05:12:14;;;;;;;59.22;56.25;;;;;;;;;;5111049;27;20081;-59
2024/03/29 05:14:40;;;;;;;59.20;56.22;;;;;;;;;;5113897;27;20646;-60
2024/03/29 05:17:05;;;;;;;58.40;55.45;;;;;;;;;;5112685;27;20096;-60
2024/03/29 05:19:30;;;;;;;61.95;58.85;;;;;;;;;;5110911;27;20423;-60
2024/03/29 05:21:55;;;;;;;61.42;58.28;;;;;;;;;;5111659;27;20035;-60
2024/03/29 05:24:21;;;;;;;62.08;58.95;;;;;;;;;;5114570;27;20108;-59
2024/03/29 05:26:46;;;;;;;58.30;55.35;;;;;;;;;;5114980;27;20035;-59
2024/03/29 05:29:12;;;;;;;59.00;56.00;;;;;;;;;;5114315;28;20035;-60
2024/03/29 05:31:37;;;;;;;62.17;59.03;;;;;;;;;;5112282;28;20041;-60
2024/03/29 05:34:03;;;;;;;68.82;65.40;;;;;;;;;;5115813;28;20050;-59
2024/03/29 05:36:28;;;;;;;66.45;63.05;;;;;;;;;;5112566;28;20024;-60
2024/03/29 05:38:54;;;;;;;72.28;68.68;;;;;;;;;;5113294;28;20039;-59
2024/03/29 05:41:19;;;;;;;74.45;70.75;;;;;;;;;;5113122;28;20311;-59
2024/03/29 05:43:44;;;;;;;72.20;68.60;;;;;;;;;;5114064;28;20112;-59
2024/03/29 05:46:10;;;;;;;72.03;68.43;;;;;;;;;;5094597;28;20035;-59
2024/03/29 05:48:35;;;;;;;73.10;69.45;;;;;;;;;;5110345;28;20035;-59
2024/03/29 05:51:00;;;;;;;76.57;72.78;;;;;;;;;;5111746;28;20039;-60
2024/03/29 05:53:26;;;;;;;72.95;69.32;;;;;;;;;;5113136;28;20058;-60
2024/03/29 05:55:51;;;;;;;77.43;73.55;;;;;;;;;;5112537;28;20114;-60
2024/03/29 05:58:20;;;;;;;75.70;71.95;;;;;;;;;;5109309;28;20035;-60
2024/03/29 06:00:46;;;;;;;76.75;72.95;;;;;;;;;;5111240;28;20110;-60
2024/03/29 06:03:11;;;;;;;74.68;70.97;;;;;;;;;;5110190;28;20129;-59
2024/03/29 06:05:37;;;;;;;78.70;74.80;;;;;;;;;;5091225;28;20042;-60
2024/03/29 06:08:03;;;;;;;77.70;73.85;;;;;;;;;;5112036;28;20035;-59
2024/03/29 06:10:29;;;;;;;75.95;72.18;;;;;;;;;;5109490;28;20035;-59
2024/03/29 06:12:54;;;;;;;76.18;72.35;;;;;;;;;;5113031;28;20042;-59
2024/03/29 06:18:03;;;;;;;71.70;68.13;;;;;;;;;;5112659;28;20035;-59
2024/03/29 06:20:29;;;;;;;72.32;68.72;;;;;;;;;;5111135;28;20031;-59
2024/03/29 06:22:54;;;;;;;72.32;68.55;;;;;;;;;;5112243;28;20038;-60
2024/03/29 06:25:19;;;;;;;78.30;74.43;;;;;;;;;;5109376;28;20031;-59
2024/03/29 06:27:47;;;;;;;77.18;73.32;;;;;;;;;;5111326;28;20136;-59
2024/03/29 06:30:14;;;;;;;70.50;66.97;;;;;;;;;;5111639;28;20046;-59
2024/03/29 06:32:39;;;;;;;74.22;70.53;;;;;;;;;;5112934;28;20032;-60
2024/03/29 06:35:06;;;;;;;69.43;65.95;;;;;;;;;;5115579;27;20164;-59
2024/03/29 06:37:31;;;;;;;69.32;65.88;;;;;;;;;;5095740;27;20078;-59
2024/03/29 06:39:56;;;;;;;72.50;68.88;;;;;;;;;;5117022;27;20084;-59
2024/03/29 06:42:22;;;;;;;71.07;67.53;;;;;;;;;;5114675;27;20166;-59
2024/03/29 06:44:47;;;;;;;61.95;58.80;;;;;;;;;;5115102;27;20437;-59
2024/03/29 06:47:12;;;;;;;61.88;58.78;;;;;;;;;;5118110;27;20088;-59
2024/03/29 06:49:38;;;;;;;68.20;64.80;;;;;;;;;;5115805;27;20042;-59
2024/03/29 06:52:04;;;;;;;68.80;65.35;;;;;;;;;;5114410;27;20027;-60
2024/03/29 06:54:29;;;;;;;65.45;62.10;;;;;;;;;;5113692;27;20073;-60
2024/03/29 06:56:56;;;;;;;69.55;66.10;;;;;;;;;;5114152;27;20039;-60
2024/03/29 06:59:21;;;;;;;67.97;64.43;;;;;;;;;;5113213;27;20093;-60
2024/03/29 07:01:47;;;;;;;70.65;67.10;;;;;;;;;;5113351;27;21115;-60
2024/03/29 07:04:15;;;;;;;67.70;64.30;;;;;;;;;;5112686;27;20041;-59
2024/03/29 07:06:42;;;;;;;63.13;59.97;;;;;;;;;;5112162;27;20028;-60
2024/03/29 07:09:09;;;;;;;73.50;69.80;;;;;;;;;;5115171;27;20024;-59
2024/03/29 07:11:35;;;;;;;66.82;63.45;;;;;;;;;;5112102;27;20024;-60
2024/03/29 07:14:00;;;;;;;65.97;62.55;;;;;;;;;;5112988;27;20629;-60
2024/03/29 07:16:25;;;;;;;66.47;63.15;;;;;;;;;;5112897;27;20041;-60
2024/03/29 07:18:51;;;;;;;62.95;59.80;;;;;;;;;;5112899;27;20034;-59
2024/03/29 07:21:16;;;;;;;63.97;60.72;;;;;;;;;;5112273;27;20375;-61
2024/03/29 07:23:41;;;;;;;63.70;60.33;;;;;;;;;;5112015;27;20376;-60
2024/03/29 07:26:07;;;;;;;65.45;62.15;;;;;;;;;;5114871;27;20023;-60
2024/03/29 07:28:33;;;;;;;69.70;66.25;;;;;;;;;;5113760;27;20107;-60
2024/03/29 07:31:07;;;;;;;68.93;65.47;;;;;;;;;;5112447;27;20062;-60
2024/03/29 07:33:32;;;;;;;78.82;74.85;;;;;;;;;;5095340;27;20053;-60
2024/03/29 07:35:58;;;;;;;82.25;78.15;;;;;;;;;;5112388;27;20031;-60
2024/03/29 07:38:23;;;;;;;87.40;83.05;;;;;;;;;;5113148;27;20074;-60
2024/03/29 07:40:50;;;;;;;74.25;70.57;;;;;;;;;;5094074;27;20144;-60
2024/03/29 07:43:15;;;;;;;82.85;78.72;;;;;;;;;;5113262;27;20046;-60
2024/03/29 07:45:44;;;;;;;85.05;80.82;;;;;;;;;;5090166;28;20040;-59
2024/03/29 07:48:12;;;;;;;81.80;77.68;;;;;;;;;;5112960;27;20228;-59
2024/03/29 07:50:37;;;;;;;90.15;85.68;;;;;;;;;;5111933;27;20479;-60
2024/03/29 07:53:03;;;;;;;95.20;90.35;;;;;;;;;;5112138;27;20035;-60
2024/03/29 07:55:28;;;;;;;101.28;96.22;;;;;;;;;;5112839;27;20042;-60
2024/03/29 07:57:53;;;;;;;101.00;95.70;;;;;;;;;;5114567;27;20035;-60
2024/03/29 08:00:19;;;;;;;106.53;101.20;;;;;;;;;;5113235;27;20031;-61
2024/03/29 08:02:44;;;;;;;112.93;107.30;;;;;;;;;;5113960;27;20172;-61
2024/03/29 08:05:09;;;;;;;106.65;101.10;;;;;;;;;;5113966;27;20642;-60
2024/03/29 08:07:35;;;;;;;103.22;97.93;;;;;;;;;;5111254;27;20031;-60
2024/03/29 08:10:00;;;;;;;100.15;94.75;;;;;;;;;;5115011;27;20663;-61
2024/03/29 08:12:26;;;;;;;88.75;84.35;;;;;;;;;;5095454;27;20496;-60
2024/03/29 08:14:51;;;;;;;84.55;80.38;;;;;;;;;;5114320;27;20046;-60
2024/03/29 08:17:16;;;;;;;91.07;86.18;;;;;;;;;;5113174;27;20038;-60
2024/03/29 08:19:42;;;;;;;87.97;83.47;;;;;;;;;;5114235;27;20020;-60
2024/03/29 08:22:10;;;;;;;87.18;82.68;;;;;;;;;;5112296;27;20445;-60
2024/03/29 08:24:36;;;;;;;84.80;80.60;;;;;;;;;;5111931;27;20114;-61
2024/03/29 08:27:02;;;;;;;82.75;78.65;;;;;;;;;;5094635;27;20043;-61
2024/03/29 08:29:28;;;;;;;83.70;79.53;;;;;;;;;;5110639;27;20555;-61
2024/03/29 08:31:53;;;;;;;79.85;75.90;;;;;;;;;;5112404;27;20562;-61
2024/03/29 08:34:18;;;;;;;86.97;82.68;;;;;;;;;;5115239;27;20114;-61
2024/03/29 08:36:44;;;;;;;83.75;79.60;;;;;;;;;;5097818;27;20042;-61
2024/03/29 08:39:09;;;;;;;81.55;77.45;;;;;;;;;;5113511;27;20078;-61
2024/03/29 08:41:35;;;;;;;82.30;78.20;;;;;;;;;;5095222;27;20063;-60
2024/03/29 08:44:01;;;;;;;82.55;78.45;;;;;;;;;;5113234;27;20032;-61
2024/03/29 08:46:28;;;;;;;82.13;77.97;;;;;;;;;;5110794;27;20062;-60
2024/03/29 08:48:54;;;;;;;76.32;72.50;;;;;;;;;;5115083;27;20035;-61
2024/03/29 08:51:20;;;;;;;81.57;76.22;;;;;;;;;;5112596;27;20400;-60
2024/03/29 08:53:46;;;;;;;77.55;73.45;;;;;;;;;;5094653;27;20028;-60
2024/03/29 08:56:12;;;;;;;77.05;73.25;;;;;;;;;;5112321;27;20348;-60
2024/03/29 08:58:37;;;;;;;75.60;71.80;;;;;;;;;;5110789;27;20050;-60
2024/03/29 09:01:04;;;;;;;74.18;70.47;;;;;;;;;;5111308;27;20043;-60
2024/03/29 09:03:29;;;;;;;75.13;71.38;;;;;;;;;;5111732;27;20118;-60
2024/03/29 09:05:55;;;;;;;65.80;62.50;;;;;;;;;;5111585;27;20130;-60
2024/03/29 09:08:20;;;;;;;70.30;66.80;;;;;;;;;;5114722;27;20788;-60
2024/03/29 09:10:46;;;;;;;76.63;72.72;;;;;;;;;;5113212;27;20027;-60
2024/03/29 09:13:11;;;;;;;78.25;74.38;;;;;;;;;;5112441;27;20377;-59
2024/03/29 09:15:37;;;;;;;76.85;73.05;;;;;;;;;;5110959;27;20051;-60
2024/03/29 09:18:09;;;;;;;74.55;70.78;;;;;;;;;;5109646;27;20035;-61
2024/03/29 09:20:36;;;;;;;67.53;64.13;;;;;;;;;;5112187;27;20023;-60
2024/03/29 09:23:01;;;;;;;70.40;66.80;;;;;;;;;;5109794;27;20039;-61
2024/03/29 09:25:26;;;;;;;67.55;64.15;;;;;;;;;;5111894;27;20804;-61
2024/03/29 09:27:52;;;;;;;70.70;66.97;;;;;;;;;;5111552;27;20027;-61
2024/03/29 09:30:19;;;;;;;82.07;77.97;;;;;;;;;;5094248;28;20059;-62
2024/03/29 09:32:44;;;;;;;73.78;69.88;;;;;;;;;;5111909;27;20039;-62
2024/03/29 09:35:10;;;;;;;68.20;64.80;;;;;;;;;;5095451;28;20505;-61
2024/03/29 09:37:36;;;;;;;68.70;65.20;;;;;;;;;;5108479;28;20051;-61
2024/03/29 09:40:03;;;;;;;77.00;73.00;;;;;;;;;;5115473;28;20092;-62
2024/03/29 09:42:32;;;;;;;63.10;59.92;;;;;;;;;;5115369;28;20415;-61
2024/03/29 09:44:58;;;;;;;53.92;51.17;;;;;;;;;;5111232;28;20104;-62
2024/03/29 09:47:25;;;;;;;50.10;47.53;;;;;;;;;;5110085;28;20051;-61
2024/03/29 09:49:52;;;;;;;46.20;43.80;;;;;;;;;;5110612;28;20047;-61
2024/03/29 09:52:19;;;;;;;48.50;46.00;;;;;;;;;;5112131;28;20132;-60
2024/03/29 09:54:45;;;;;;;52.35;49.72;;;;;;;;;;5113721;28;20035;-60
2024/03/29 09:57:13;;;;;;;60.00;56.80;;;;;;;;;;5114865;28;20065;-61
2024/03/29 09:59:38;;;;;;;52.80;50.10;;;;;;;;;;5108560;28;20040;-60
2024/03/29 10:02:29;;;;;;;47.50;44.55;;;;;;;;;;5092618;28;20183;-60
2024/03/29 10:04:57;;;;;;;53.50;50.70;;;;;;;;;;5097776;28;20528;-61
2024/03/29 10:07:23;;;;;;;43.38;41.17;;;;;;;;;;5089272;28;20115;-60
2024/03/29 10:09:50;;;;;;;51.72;49.13;;;;;;;;;;5091770;27;20046;-61
2024/03/29 10:12:17;;;;;;;50.20;47.65;;;;;;;;;;5116853;27;20032;-60
2024/03/29 10:14:49;;;;;;;61.15;58.08;;;;;;;;;;5113502;27;20040;-60
2024/03/29 10:17:18;;;;;;;58.05;55.13;;;;;;;;;;5118133;27;20023;-61
2024/03/29 10:19:45;;;;;;;58.50;55.55;;;;;;;;;;5096154;27;20122;-60
2024/03/29 10:22:10;;;;;;;53.53;50.83;;;;;;;;;;5115296;27;20377;-60
2024/03/29 10:24:36;;;;;;;62.55;59.35;;;;;;;;;;5114412;27;20049;-61
2024/03/29 10:27:02;;;;;;;51.97;49.25;;;;;;;;;;5114854;27;20380;-61
2024/03/29 10:29:29;;;;;;;48.28;45.80;;;;;;;;;;5117561;27;20040;-60
2024/03/29 10:31:55;;;;;;;42.75;40.55;;;;;;;;;;5113977;27;20028;-61
2024/03/29 10:34:21;;;;;;;38.88;36.88;;;;;;;;;;5115473;27;20117;-61
2024/03/29 10:36:47;;;;;;;38.22;36.13;;;;;;;;;;5113239;27;20110;-62
2024/03/29 10:39:12;;;;;;;44.97;42.67;;;;;;;;;;5116242;27;20047;-61
2024/03/29 10:41:46;;;;;;;45.78;43.47;;;;;;;;;;5115278;27;20039;-61
2024/03/29 10:44:12;;;;;;;38.10;36.17;;;;;;;;;;5114002;27;20042;-61
2024/03/29 10:46:41;;;;;;;38.28;36.33;;;;;;;;;;5115596;27;20443;-61
2024/03/29 10:49:11;;;;;;;37.38;35.47;;;;;;;;;;5114579;27;20116;-60
2024/03/29 10:51:40;;;;;;;41.63;37.53;;;;;;;;;;5115334;27;20576;-60
2024/03/29 10:54:09;;;;;;;40.20;38.15;;;;;;;;;;5113619;27;20035;-60
2024/03/29 10:56:36;;;;;;;48.25;45.80;;;;;;;;;;5116490;27;20031;-61
2024/03/29 10:59:26;;;;;;;46.03;43.67;;;;;;;;;;5116598;27;20057;-61
2024/03/29 11:02:06;;;;;;;43.90;41.65;;;;;;;;;;5099740;27;20046;-60
2024/03/29 11:04:36;;;;;;;44.15;41.92;;;;;;;;;;5096701;27;20106;-60
2024/03/29 11:07:06;;;;;;;45.33;43.00;;;;;;;;;;5116028;27;20087;-60
2024/03/29 11:09:34;;;;;;;33.13;31.42;;;;;;;;;;5116994;27;20035;-60
2024/03/29 11:12:01;;;;;;;33.08;31.38;;;;;;;;;;5115907;27;20027;-60
2024/03/29 11:14:42;;;;;;;37.65;35.72;;;;;;;;;;5113444;27;20153;-60
2024/03/29 11:17:07;;;;;;;37.67;35.75;;;;;;;;;;5098153;27;20035;-60
2024/03/29 11:19:33;;;;;;;35.90;34.08;;;;;;;;;;5113518;27;20495;-60
2024/03/29 11:21:59;;;;;;;35.97;34.13;;;;;;;;;;5112807;27;20027;-60
2024/03/29 11:24:26;;;;;;;37.47;35.55;;;;;;;;;;5116795;27;20174;-61
2024/03/29 11:26:52;;;;;;;36.45;34.58;;;;;;;;;;5097630;27;20046;-61
2024/03/29 11:29:22;;;;;;;44.53;42.28;;;;;;;;;;5115598;27;20039;-61
2024/03/29 11:31:56;;;;;;;37.92;35.97;;;;;;;;;;5116243;27;20028;-60
2024/03/29 11:34:21;;;;;;;42.33;40.17;;;;;;;;;;5116319;27;20034;-60
2024/03/29 11:36:46;;;;;;;40.30;38.25;;;;;;;;;;5097358;27;20450;-60
2024/03/29 11:39:22;;;;;;;42.22;40.08;;;;;;;;;;5113633;27;20032;-60
2024/03/29 11:41:49;;;;;;;41.10;39.00;;;;;;;;;;5115382;27;20036;-60
2024/03/29 11:44:15;;;;;;;43.08;40.88;;;;;;;;;;5117520;27;20027;-60
2024/03/29 11:46:42;;;;;;;44.65;42.13;;;;;;;;;;5116454;27;20034;-59
2024/03/29 11:49:07;;;;;;;59.80;56.78;;;;;;;;;;5097970;27;20047;-60
2024/03/29 11:51:33;;;;;;;72.25;68.63;;;;;;;;;;5115028;27;20464;-60
2024/03/29 11:54:00;;;;;;;74.30;70.55;;;;;;;;;;5095758;27;20024;-60
2024/03/29 11:56:25;;;;;;;96.93;92.13;;;;;;;;;;5097115;27;20066;-60
2024/03/29 11:58:50;;;;;;;118.25;112.38;;;;;;;;;;5098171;27;20066;-60
2024/03/29 12:01:16;;;;;;;89.00;84.57;;;;;;;;;;5118044;27;20036;-60
2024/03/29 12:03:43;;;;;;;83.78;79.63;;;;;;;;;;5118844;27;20027;-61
2024/03/29 12:06:09;;;;;;;101.20;96.15;;;;;;;;;;5113569;27;20043;-61
2024/03/29 12:08:39;;;;;;;100.63;95.63;;;;;;;;;;5114004;27;20161;-60
2024/03/29 12:11:05;;;;;;;91.32;86.32;;;;;;;;;;5112236;27;20123;-61
2024/03/29 12:13:31;;;;;;;79.03;75.05;;;;;;;;;;5111276;27;20146;-60
2024/03/29 12:15:58;;;;;;;78.53;74.50;;;;;;;;;;5117943;27;20031;-60
2024/03/29 12:18:25;;;;;;;72.97;69.30;;;;;;;;;;5117762;27;20043;-60
2024/03/29 12:20:51;;;;;;;75.28;71.43;;;;;;;;;;5116320;27;20039;-60
2024/03/29 12:23:19;;;;;;;61.40;58.28;;;;;;;;;;5119125;27;20046;-60
2024/03/29 12:25:45;;;;;;;62.88;59.65;;;;;;;;;;5113527;27;20026;-60
2024/03/29 12:28:12;;;;;;;61.75;58.63;;;;;;;;;;5099438;27;20154;-61
2024/03/29 12:30:41;;;;;;;60.17;57.15;;;;;;;;;;5113602;27;20672;-60
2024/03/29 12:33:11;;;;;;;59.10;56.08;;;;;;;;;;5094881;27;20361;-61
2024/03/29 12:35:37;;;;;;;65.72;62.42;;;;;;;;;;5112464;27;20126;-61
2024/03/29 12:38:03;;;;;;;68.03;64.60;;;;;;;;;;5114240;27;20504;-61
2024/03/29 12:40:38;;;;;;;68.40;64.70;;;;;;;;;;5115888;27;20964;-60
2024/03/29 12:43:05;;;;;;;74.68;70.93;;;;;;;;;;5112216;27;20031;-61
2024/03/29 12:45:31;;;;;;;71.75;68.13;;;;;;;;;;5114122;27;20052;-61
2024/03/29 12:47:56;;;;;;;73.40;69.68;;;;;;;;;;5117695;27;20118;-61
2024/03/29 12:50:27;;;;;;;75.38;71.60;;;;;;;;;;5115551;27;20031;-61
2024/03/29 12:53:13;;;;;;;69.65;66.07;;;;;;;;;;5113402;27;20027;-61
2024/03/29 12:55:41;;;;;;;74.03;70.28;;;;;;;;;;5112887;27;20027;-61
2024/03/29 12:58:09;;;;;;;77.68;73.75;;;;;;;;;;5115943;27;20333;-60
2024/03/29 13:00:36;;;;;;;75.00;71.20;;;;;;;;;;5114355;27;20035;-61
2024/03/29 13:03:01;;;;;;;75.10;71.30;;;;;;;;;;5112084;27;20050;-61
2024/03/29 13:05:29;;;;;;;65.25;61.92;;;;;;;;;;5112178;27;20072;-60
2024/03/29 13:07:54;;;;;;;65.53;62.22;;;;;;;;;;5114347;27;20084;-60
2024/03/29 13:10:20;;;;;;;65.45;62.05;;;;;;;;;;5111937;27;20031;-60
2024/03/29 13:12:49;;;;;;;65.93;62.55;;;;;;;;;;5113424;27;20112;-60
2024/03/29 13:15:24;;;;;;;65.88;62.47;;;;;;;;;;5110758;27;20110;-61
2024/03/29 13:17:51;;;;;;;67.85;64.25;;;;;;;;;;5111876;27;20784;-61
2024/03/29 13:20:17;;;;;;;68.82;65.32;;;;;;;;;;5114161;27;20039;-60
2024/03/29 13:22:45;;;;;;;85.80;81.22;;;;;;;;;;5113301;27;20028;-60
2024/03/29 13:25:11;;;;;;;75.13;71.30;;;;;;;;;;5113267;27;20495;-60
2024/03/29 13:27:38;;;;;;;91.82;87.15;;;;;;;;;;5114368;27;20046;-60
2024/03/29 13:30:08;;;;;;;75.30;71.43;;;;;;;;;;5112039;27;20027;-60
2024/03/29 13:32:39;;;;;;;96.00;91.10;;;;;;;;;;5113017;27;20031;-61
2024/03/29 13:35:05;;;;;;;;;;;;;;;;;;5112492;27;20039;-60
2024/03/29 13:37:33;;;;;;;75.78;71.95;;;;;;;;;;5094538;28;19923;-60
2024/03/29 13:39:59;;;;;;;82.82;78.47;;;;;;;;;;5113667;28;20037;-60
2024/03/29 13:42:24;;;;;;;95.07;90.22;;;;;;;;;;5110820;28;20329;-60
2024/03/29 13:44:50;;;;;;;88.00;83.50;;;;;;;;;;5111378;27;20031;-61
2024/03/29 13:47:16;;;;;;;93.05;88.25;;;;;;;;;;5113047;27;20031;-61
2024/03/29 13:49:42;;;;;;;92.30;87.57;;;;;;;;;;5096451;27;20108;-61
2024/03/29 13:52:08;;;;;;;90.40;85.78;;;;;;;;;;5097573;27;20070;-61
2024/03/29 13:54:34;;;;;;;85.43;81.00;;;;;;;;;;5116583;27;20620;-61
2024/03/29 13:57:00;;;;;;;90.53;85.93;;;;;;;;;;5117203;27;20023;-61
2024/03/29 13:59:26;;;;;;;89.57;84.90;;;;;;;;;;5116941;27;20039;-61
2024/03/29 14:01:52;;;;;;;90.57;85.93;;;;;;;;;;5116111;27;20061;-60
2024/03/29 14:04:17;;;;;;;87.57;83.10;;;;;;;;;;5113937;27;20043;-51
2024/03/29 14:06:42;;;;;;;88.15;83.65;;;;;;;;;;5117550;27;20023;-55
2024/03/29 14:09:08;;;;;;;79.72;75.68;;;;;;;;;;5117537;27;20039;-54
2024/03/29 14:11:33;;;;;;;81.68;77.53;;;;;;;;;;5118340;27;20113;-55
2024/03/29 14:13:58;;;;;;;84.95;80.60;;;;;;;;;;5118672;27;20110;-54
2024/03/29 14:16:24;;;;;;;81.60;77.45;;;;;;;;;;5119785;27;20042;-55